Sunday, July 22, 2018, 6:02 PM EDT
Back to Local

KSHD, Staunton / Shenandoah

Location: Weyers Cave, VA, United States Lat: 38.267
Local Time: 6:02 PM EDT (22:02 GMT) Lon: -78.9
Time Zone: US/Eastern Elev: 1200 ft

Show me the last for .
Show Decoded

2018-07-22 17:35 METAR KSHD 222135Z AUTO 11004KT 10SM SCT048 SCT085 A2984 RMK AO2 =
2018-07-22 17:15 METAR KSHD 222115Z AUTO 00000KT 10SM SCT026 BKN036 OVC048 A2985 RMK AO2 =
2018-07-22 16:55 METAR KSHD 222055Z AUTO 17004KT 10SM SCT021 OVC036 A2985 RMK AO2 LTG DSNT W
                 60003 =
2018-07-22 16:35 METAR KSHD 222035Z AUTO 09003KT 10SM BKN019 BKN032 OVC044 A2984 RMK AO2 LTG DSNT
                 E =
2018-07-22 16:15 METAR KSHD 222015Z AUTO 00000KT 10SM BKN019 BKN027 OVC080 23/19 A2984 RMK AO2
                 T02270192 =
2018-07-22 15:55 METAR KSHD 221955Z AUTO 18003KT 10SM SCT014 SCT023 BKN028 22/19 A2984 RMK AO2
                 LTG DSNT W T02230190 =
2018-07-22 15:35 METAR KSHD 221935Z AUTO 19003KT 10SM -RA SCT014 BKN023 OVC070 22/19 A2984 RMK
                 AO2 T02150191 =
2018-07-22 15:15 METAR KSHD 221915Z AUTO 00000KT 10SM -RA SCT017 BKN070 OVC085 21/19 A2984 RMK
                 AO2 LTG DSNT E T02130189 =
2018-07-22 14:55 METAR KSHD 221855Z AUTO 00000KT 10SM DZ SCT038 BKN075 OVC090 21/19 A2984 RMK AO2
                 P0003 T02080189 =
2018-07-22 14:35 METAR KSHD 221835Z AUTO 16004KT 10SM -RA SCT046 BKN060 OVC090 21/19 A2985 RMK
                 AO2 P0002 T02060193 =
2018-07-22 14:15 METAR KSHD 221815Z AUTO 16004KT 10SM -RA SCT010 BKN050 OVC060 21/19 A2986 RMK
                 AO2 P0001 T02070192 =
2018-07-22 13:55 METAR KSHD 221755Z AUTO 17003KT 10SM -RA BKN011 OVC018 A2986 RMK AO2 P0003 60003
                 10223 20177 =
2018-07-22 13:35 METAR KSHD 221735Z AUTO 15003KT 10SM RA BKN011 OVC018 21/19 A2985 RMK AO2 P0001
                 T02060189 =
2018-07-22 13:15 METAR KSHD 221715Z AUTO 00000KT 10SM BKN013 BKN018 OVC026 21/19 A2985 RMK AO2
                 T02100188 =
2018-07-22 12:55 METAR KSHD 221655Z AUTO 16004KT 10SM RA SCT013 OVC026 21/19 A2985 RMK AO2
                 T02110188 =
2018-07-22 12:35 METAR KSHD 221635Z AUTO 14004KT 10SM DZ SCT013 BKN024 OVC032 21/19 A2985 RMK AO2
                 LTG DSNT SW T02070190 =
2018-07-22 12:15 METAR KSHD 221615Z AUTO 16006KT 10SM DZ BKN017 OVC024 21/19 A2985 RMK AO2 LTG
                 DSNT SW T02100188 =
2018-07-22 11:55 METAR KSHD 221555Z AUTO 15005KT 10SM -RA BKN017 OVC025 22/19 A2985 RMK AO2
                 T02190188 =
2018-07-22 11:35 METAR KSHD 221535Z AUTO 16007KT 10SM SCT015 BKN070 OVC110 22/18 A2985 RMK AO2
                 T02230183 =
2018-07-22 11:15 METAR KSHD 221515Z AUTO 19005KT 10SM SCT015 SCT027 OVC110 22/18 A2984 RMK AO2
                 T02200181 =
2018-07-22 10:55 METAR KSHD 221455Z AUTO 20005KT 10SM SCT017 OVC025 22/18 A2984 RMK AO2 T02160180
                 =
2018-07-22 10:35 METAR KSHD 221435Z AUTO 18005KT 10SM BKN017 OVC024 21/18 A2984 RMK AO2 T02130180
                 =
2018-07-22 10:15 METAR KSHD 221415Z AUTO 15004KT 10SM BKN017 BKN024 OVC110 21/17 A2984 RMK AO2
                 T02120174 =
2018-07-22 09:55 METAR KSHD 221355Z AUTO 17003KT 10SM BKN019 OVC110 21/17 A2984 RMK AO2 T02110171
                 =
2018-07-22 09:35 METAR KSHD 221335Z AUTO 20004KT 10SM OVC019 21/17 A2983 RMK AO2 T02110168 =
2018-07-22 09:15 METAR KSHD 221315Z AUTO 19003KT 10SM OVC023 21/17 A2983 RMK AO2 T02100167 =
2018-07-22 08:55 METAR KSHD 221255Z AUTO 15003KT 10SM BKN021 BKN050 21/17 A2984 RMK AO2 T02070165
                 =
2018-07-22 08:35 METAR KSHD 221235Z AUTO 13003KT 10SM SCT018 BKN050 20/16 A2984 RMK AO2 T01950164
                 =
2018-07-22 08:15 METAR KSHD 221215Z AUTO 00000KT 10SM CLR 19/16 A2983 RMK AO2 T01870160 =
2018-07-22 07:55 METAR KSHD 221155Z AUTO 00000KT 10SM SCT016 18/16 A2982 RMK AO2 T01770161 10177
                 20140 =
2018-07-22 07:35 METAR KSHD 221135Z AUTO 00000KT 10SM BKN018 17/16 A2981 RMK AO2 T01650155 =
2018-07-22 07:15 METAR KSHD 221115Z AUTO 00000KT 10SM OVC018 16/16 A2981 RMK AO2 T01600155 =
2018-07-22 06:55 METAR KSHD 221055Z AUTO 00000KT 10SM BKN018 BKN023 16/15 A2980 RMK AO2 T01550149
                 =
2018-07-22 06:35 METAR KSHD 221035Z AUTO 00000KT 10SM SCT023 15/14 A2979 RMK AO2 T01460142 =
2018-07-22 06:15 METAR KSHD 221015Z AUTO 00000KT 7SM SCT021 BKN120 14/14 A2979 RMK AO2 T01440141
                 =
2018-07-22 05:55 METAR KSHD 220955Z AUTO 00000KT 10SM BKN120 15/14 A2980 RMK AO2 T01450141 =
2018-07-22 05:35 METAR KSHD 220935Z AUTO 00000KT 7SM SCT031 14/14 A2979 RMK AO2 T01430140 =
2018-07-22 05:15 METAR KSHD 220915Z AUTO 00000KT 10SM SCT033 15/15 A2978 RMK AO2 T01510148 =
2018-07-22 04:55 METAR KSHD 220855Z AUTO 00000KT 10SM CLR 15/15 A2979 RMK AO2 T01530149 =
2018-07-22 04:35 METAR KSHD 220835Z AUTO 00000KT 10SM CLR 15/15 A2979 RMK AO2 T01510147 =
2018-07-22 04:15 METAR KSHD 220815Z AUTO 00000KT 10SM CLR 15/15 A2979 RMK AO2 T01520149 =
2018-07-22 03:55 METAR KSHD 220755Z AUTO 00000KT 10SM CLR 16/15 A2979 RMK AO2 T01550151 =
2018-07-22 03:35 METAR KSHD 220735Z AUTO 00000KT 10SM CLR 16/15 A2979 RMK AO2 T01560151 =
2018-07-22 03:15 METAR KSHD 220715Z AUTO 00000KT 10SM CLR 16/15 A2979 RMK AO2 T01590151 =
2018-07-22 02:55 METAR KSHD 220655Z AUTO 00000KT 10SM CLR 16/16 A2979 RMK AO2 LTG DSNT SE
                 T01620155 =
2018-07-22 02:35 METAR KSHD 220635Z AUTO 00000KT 10SM CLR 16/15 A2979 RMK AO2 T01640154 =
2018-07-22 02:15 METAR KSHD 220615Z AUTO 00000KT 10SM CLR 17/16 A2979 RMK AO2 T01720158 =
2018-07-22 01:55 METAR KSHD 220555Z AUTO 10003KT 10SM BKN025 18/16 A2979 RMK AO2 T01770161 10196
                 20177 =
2018-07-22 01:35 METAR KSHD 220535Z AUTO 00000KT 10SM OVC025 18/16 A2981 RMK AO2 T01810163 =
2018-07-22 01:15 METAR KSHD 220515Z AUTO 00000KT 10SM OVC027 18/16 A2981 RMK AO2 T01830163 =
2018-07-22 00:55 METAR KSHD 220455Z AUTO 00000KT 10SM OVC025 18/16 A2981 RMK AO2 T01820163 =
2018-07-22 00:35 METAR KSHD 220435Z AUTO 00000KT 10SM OVC025 18/16 A2982 RMK AO2 T01830162 =
2018-07-22 00:15 METAR KSHD 220415Z AUTO 00000KT 10SM OVC021 19/16 A2982 RMK AO2 T01860161 =
2018-07-21 23:55 METAR KSHD 220355Z AUTO 00000KT 10SM OVC019 19/16 A2983 RMK AO2 T01850162 =
2018-07-21 23:35 METAR KSHD 220335Z AUTO 00000KT 10SM OVC019 19/16 A2983 RMK AO2 T01870159 =
2018-07-21 23:15 METAR KSHD 220315Z AUTO 00000KT 10SM OVC019 19/16 A2983 RMK AO2 T01860160 =
2018-07-21 22:55 METAR KSHD 220255Z AUTO 02003KT 10SM OVC019 19/16 A2984 RMK AO2 T01850161 =
2018-07-21 22:35 METAR KSHD 220235Z AUTO 00000KT 10SM OVC016 18/16 A2985 RMK AO2 T01840163 =
2018-07-21 22:15 METAR KSHD 220215Z AUTO 01004KT 10SM BKN016 OVC023 18/16 A2985 RMK AO2 T01810163
                 =
2018-07-21 21:55 METAR KSHD 220155Z AUTO 04009KT 10SM BKN016 OVC022 A2985 RMK AO2 =
2018-07-21 21:35 METAR KSHD 220135Z AUTO 03008KT 10SM BKN016 OVC021 19/16 A2984 RMK AO2 T01900160
                 =
2018-07-21 21:15 METAR KSHD 220115Z AUTO 02006KT 10SM OVC014 A2985 RMK AO2 =
2018-07-21 20:55 METAR KSHD 220055Z AUTO 01005KT 10SM OVC014 19/16 A2985 RMK AO2 T01900160 =
2018-07-21 20:35 METAR KSHD 220035Z AUTO 02010KT 10SM OVC016 A2985 RMK AO2 =
2018-07-21 20:15 METAR KSHD 220015Z AUTO 01007KT 10SM OVC016 A2985 RMK AO2 =
2018-07-21 19:55 METAR KSHD 212355Z AUTO 02011KT 10SM SCT016 OVC025 20/16 A2985 RMK AO2 T01970161
                 =
2018-07-21 19:35 METAR KSHD 212335Z AUTO 36009G15KT 10SM SCT016 OVC025 20/16 A2985 RMK AO2
                 T02010162 =
2018-07-21 19:15 METAR KSHD 212315Z AUTO 01009G15KT 10SM BKN018 OVC023 21/17 A2986 RMK AO2
                 T02050165 =
2018-07-21 18:55 METAR KSHD 212255Z AUTO 36013KT 10SM SCT018 BKN022 A2985 RMK AO2 =
2018-07-21 18:35 METAR KSHD 212235Z AUTO 01011G17KT 10SM SCT024 SCT029 A2985 RMK AO2 =
2018-07-21 18:15 METAR KSHD 212215Z AUTO 02011G15KT 10SM SCT024 BKN030 22/17 A2984 RMK AO2
                 T02210167 =

Support USWX by starting your Amazon purchase here.